createdAt,value
2018-12-11T00:00:43.339Z,68.16
2018-12-11T00:03:15.953Z,68.18
2018-12-11T00:05:48.511Z,68.40
2018-12-11T00:08:21.130Z,68.15
2018-12-11T00:10:54.251Z,68.52
2018-12-11T00:13:28.080Z,68.33
2018-12-11T00:16:00.715Z,68.25
2018-12-11T00:18:33.449Z,68.34
2018-12-11T00:21:06.198Z,68.19
2018-12-11T00:23:39.415Z,68.07
2018-12-11T00:26:11.977Z,67.99
2018-12-11T00:28:44.622Z,68.01
2018-12-11T00:31:17.431Z,67.90
2018-12-11T00:33:50.029Z,68.10
2018-12-11T00:36:22.596Z,68.10
2018-12-11T00:38:55.215Z,67.94
2018-12-11T00:41:27.856Z,67.72
2018-12-11T00:44:00.628Z,67.61
2018-12-11T00:46:33.676Z,67.73
2018-12-11T00:49:06.300Z,67.72
2018-12-11T00:51:38.888Z,67.58
2018-12-11T00:54:11.514Z,67.73
2018-12-11T00:56:44.229Z,67.68
2018-12-11T00:59:16.801Z,67.81
2018-12-11T01:01:49.341Z,67.72
2018-12-11T01:04:21.960Z,67.37
2018-12-11T01:06:54.555Z,67.58
2018-12-11T01:09:27.242Z,67.64
2018-12-11T01:11:59.804Z,67.49
2018-12-11T01:14:32.387Z,67.68
2018-12-11T01:17:04.985Z,67.67
2018-12-11T01:19:37.641Z,67.71
2018-12-11T01:22:11.376Z,67.50
2018-12-11T01:24:44.150Z,67.38
2018-12-11T01:27:16.868Z,67.52
2018-12-11T01:29:49.558Z,67.29
2018-12-11T01:32:22.243Z,67.29
2018-12-11T01:34:54.828Z,67.28
2018-12-11T01:37:27.378Z,67.39
2018-12-11T01:40:00.069Z,67.69
2018-12-11T01:42:32.634Z,67.28
2018-12-11T01:45:05.680Z,66.88
2018-12-11T01:47:38.258Z,67.36
2018-12-11T01:50:10.975Z,66.85
2018-12-11T01:52:43.577Z,67.18
2018-12-11T01:55:16.250Z,67.30
2018-12-11T01:57:48.804Z,67.24
2018-12-11T02:00:23.467Z,67.35
2018-12-11T02:02:56.029Z,66.92
2018-12-11T02:05:28.622Z,67.01
2018-12-11T02:08:01.176Z,66.94
2018-12-11T02:10:33.770Z,67.02
2018-12-11T02:13:06.313Z,67.15
2018-12-11T02:15:38.909Z,67.09
2018-12-11T02:18:11.466Z,66.94
2018-12-11T02:20:44.102Z,66.97
2018-12-11T02:23:16.649Z,66.93
2018-12-11T02:25:49.305Z,67.00
2018-12-11T02:28:21.838Z,66.94
2018-12-11T02:30:54.519Z,67.13
2018-12-11T02:33:27.074Z,67.23
2018-12-11T02:35:59.632Z,67.34
2018-12-11T02:38:32.229Z,67.14
2018-12-11T02:41:05.025Z,66.94
2018-12-11T02:43:37.576Z,67.06
2018-12-11T02:46:10.171Z,66.96
2018-12-11T02:48:42.705Z,66.81
2018-12-11T02:51:15.329Z,67.43
2018-12-11T02:53:47.907Z,67.17
2018-12-11T02:56:20.500Z,66.90
2018-12-11T02:58:53.114Z,67.11
2018-12-11T03:01:25.839Z,67.18
2018-12-11T03:03:58.375Z,67.22
2018-12-11T03:06:30.928Z,67.15
2018-12-11T03:09:05.256Z,67.09
2018-12-11T03:11:37.801Z,67.06
2018-12-11T03:14:10.322Z,67.26
2018-12-11T03:16:42.967Z,67.04
2018-12-11T03:19:15.493Z,67.03
2018-12-11T03:21:48.148Z,67.13
2018-12-11T03:24:20.739Z,67.34
2018-12-11T03:26:53.290Z,67.34
2018-12-11T03:29:25.862Z,67.15
2018-12-11T03:31:58.576Z,67.05
2018-12-11T03:34:31.110Z,67.37
2018-12-11T03:37:03.789Z,67.10
2018-12-11T03:39:36.549Z,66.87
2018-12-11T03:42:09.189Z,67.30
2018-12-11T03:44:41.749Z,67.13
2018-12-11T03:47:14.386Z,67.22
2018-12-11T03:49:46.937Z,66.82
2018-12-11T03:52:21.606Z,67.14
2018-12-11T03:54:54.090Z,67.08
2018-12-11T03:57:26.658Z,66.94
2018-12-11T03:59:59.203Z,67.13
2018-12-11T04:02:31.792Z,67.13
2018-12-11T04:05:05.390Z,67.30
2018-12-11T04:07:37.940Z,67.24
2018-12-11T04:10:10.462Z,67.16
2018-12-11T04:12:43.136Z,66.98
2018-12-11T04:15:15.657Z,67.07
2018-12-11T04:17:48.219Z,67.09
2018-12-11T04:20:20.750Z,67.16
2018-12-11T04:22:53.307Z,67.09
2018-12-11T04:25:25.855Z,67.37
2018-12-11T04:27:58.531Z,67.50
2018-12-11T04:30:31.079Z,67.38
2018-12-11T04:33:03.701Z,67.42
2018-12-11T04:35:36.239Z,67.18
2018-12-11T04:38:08.781Z,67.24
2018-12-11T04:40:41.309Z,67.05
2018-12-11T04:43:13.954Z,67.04
2018-12-11T04:45:46.498Z,67.24
2018-12-11T04:48:19.161Z,67.26
2018-12-11T04:50:51.701Z,67.22
2018-12-11T04:53:24.363Z,67.06
2018-12-11T04:55:56.889Z,67.31
2018-12-11T04:58:29.450Z,66.99
2018-12-11T05:01:01.991Z,67.00
2018-12-11T05:03:34.657Z,66.90
2018-12-11T05:06:07.209Z,66.73
2018-12-11T05:08:39.966Z,66.89
2018-12-11T05:11:12.504Z,67.07
2018-12-11T05:13:45.038Z,67.07
2018-12-11T05:16:17.606Z,67.18
2018-12-11T05:18:50.204Z,67.13
2018-12-11T05:21:22.781Z,67.04
2018-12-11T05:23:55.342Z,67.00
2018-12-11T05:26:27.887Z,66.86
2018-12-11T05:29:00.433Z,67.12
2018-12-11T05:31:33.006Z,66.87
2018-12-11T05:34:05.754Z,66.96
2018-12-11T05:36:38.288Z,66.81
2018-12-11T05:39:10.983Z,66.76
2018-12-11T05:41:43.548Z,66.79
2018-12-11T05:44:16.176Z,67.10
2018-12-11T05:46:48.710Z,66.87
2018-12-11T05:49:21.345Z,66.74
2018-12-11T05:51:53.871Z,66.80
2018-12-11T05:54:26.453Z,66.80
2018-12-11T05:56:58.991Z,66.91
2018-12-11T05:59:31.733Z,66.54
2018-12-11T06:02:04.334Z,66.84
2018-12-11T06:04:36.939Z,66.68
2018-12-11T06:07:09.487Z,66.48
2018-12-11T06:09:43.098Z,66.37
2018-12-11T06:12:15.690Z,66.35
2018-12-11T06:14:48.498Z,66.51
2018-12-11T06:17:21.473Z,66.46
2018-12-11T06:19:54.286Z,66.60
2018-12-11T06:22:27.274Z,66.53
2018-12-11T06:25:00.159Z,66.58
2018-12-11T06:27:33.178Z,66.90
2018-12-11T06:30:08.127Z,66.95
2018-12-11T06:32:41.224Z,66.68
2018-12-11T06:35:13.964Z,66.84
2018-12-11T06:37:47.619Z,67.13
2018-12-11T06:40:20.252Z,66.49
2018-12-11T06:42:53.913Z,66.77
2018-12-11T06:45:26.603Z,66.61
2018-12-11T06:47:59.143Z,66.45
2018-12-11T06:50:31.752Z,66.63
2018-12-11T06:53:04.277Z,66.41
2018-12-11T06:55:36.847Z,66.44
2018-12-11T06:58:09.434Z,66.33
2018-12-11T07:00:42.554Z,66.57
2018-12-11T07:03:15.131Z,66.77
2018-12-11T07:05:47.756Z,66.69
2018-12-11T07:08:20.321Z,66.67
2018-12-11T07:10:52.991Z,66.35
2018-12-11T07:13:25.527Z,66.64
2018-12-11T07:15:58.136Z,66.64
2018-12-11T07:18:31.142Z,66.39
2018-12-11T07:21:03.907Z,66.34
2018-12-11T07:23:36.468Z,66.37
2018-12-11T07:26:09.043Z,66.77
2018-12-11T07:28:41.635Z,66.53
2018-12-11T07:31:14.312Z,66.79
2018-12-11T07:33:50.890Z,66.80
2018-12-11T07:36:21.548Z,66.74
2018-12-11T07:38:54.080Z,66.45
2018-12-11T07:41:26.739Z,66.46
2018-12-11T07:43:59.274Z,66.35
2018-12-11T07:46:31.848Z,66.58
2018-12-11T07:49:04.381Z,66.39
2018-12-11T07:51:37.019Z,66.66
2018-12-11T07:54:09.586Z,66.40
2018-12-11T07:56:42.229Z,66.16
2018-12-11T07:59:14.766Z,66.51
2018-12-11T08:01:47.436Z,66.27
2018-12-11T08:04:19.976Z,66.41
2018-12-11T08:06:52.537Z,66.52
2018-12-11T08:09:25.062Z,66.46
2018-12-11T08:11:57.896Z,66.27
2018-12-11T08:14:30.421Z,66.30
2018-12-11T08:17:03.074Z,66.34
2018-12-11T08:19:35.603Z,66.42
2018-12-11T08:22:08.236Z,66.16
2018-12-11T08:24:40.766Z,66.16
2018-12-11T08:27:13.347Z,65.85
2018-12-11T08:29:46.039Z,66.18
2018-12-11T08:32:18.604Z,65.62
2018-12-11T08:34:52.551Z,65.90
2018-12-11T08:37:25.252Z,65.76
2018-12-11T08:39:57.784Z,66.02
2018-12-11T08:42:30.415Z,65.80
2018-12-11T08:45:03.109Z,65.62
2018-12-11T08:47:35.754Z,65.59
2018-12-11T08:50:08.288Z,65.41
2018-12-11T08:52:40.867Z,65.56
2018-12-11T08:55:13.390Z,65.56
2018-12-11T08:57:45.975Z,65.48
2018-12-11T09:00:18.525Z,65.06
2018-12-11T09:02:51.385Z,64.93
2018-12-11T09:05:23.939Z,65.33
2018-12-11T09:07:56.602Z,65.13
2018-12-11T09:10:29.249Z,65.33
2018-12-11T09:13:02.163Z,64.89
2018-12-11T09:15:34.717Z,64.72
2018-12-11T09:18:07.287Z,64.96
2018-12-11T09:20:39.824Z,64.53
2018-12-11T09:23:12.492Z,64.42
2018-12-11T09:25:45.025Z,64.66
2018-12-11T09:28:17.671Z,64.44
2018-12-11T09:30:50.209Z,64.60
2018-12-11T09:33:22.850Z,64.35
2018-12-11T09:35:55.386Z,64.31
2018-12-11T09:38:28.154Z,64.30
2018-12-11T09:41:00.711Z,64.08
2018-12-11T09:43:33.298Z,63.96
2018-12-11T09:46:05.836Z,63.29
2018-12-11T09:48:38.410Z,63.30
2018-12-11T09:51:17.637Z,63.45
2018-12-11T09:53:45.899Z,62.83
2018-12-11T09:56:18.453Z,62.88
2018-12-11T09:58:51.134Z,62.61
2018-12-11T10:01:23.662Z,62.75
2018-12-11T10:03:56.332Z,62.64
2018-12-11T10:06:28.926Z,62.70
2018-12-11T10:09:04.439Z,62.42
2018-12-11T10:11:36.979Z,62.29
2018-12-11T10:14:09.541Z,62.43
2018-12-11T10:16:42.091Z,62.14
2018-12-11T10:19:14.667Z,61.89
2018-12-11T10:21:47.248Z,61.58
2018-12-11T10:24:21.999Z,61.44
2018-12-11T10:26:54.591Z,61.69
2018-12-11T10:29:27.183Z,61.51
2018-12-11T10:31:59.734Z,60.94
2018-12-11T10:34:32.324Z,60.95
2018-12-11T10:37:04.883Z,60.99
2018-12-11T10:39:37.522Z,60.78
2018-12-11T10:42:10.054Z,60.25
2018-12-11T10:44:43.038Z,60.73
2018-12-11T10:47:15.599Z,60.37
2018-12-11T10:49:48.162Z,60.31
2018-12-11T10:52:20.693Z,60.16
2018-12-11T10:54:53.330Z,60.37
2018-12-11T10:57:25.887Z,60.40
2018-12-11T10:59:58.601Z,60.31
2018-12-11T11:02:31.139Z,58.90
2018-12-11T11:05:03.894Z,59.06
2018-12-11T11:07:36.757Z,59.55
2018-12-11T11:10:09.460Z,59.49
2018-12-11T11:12:42.004Z,59.51
2018-12-11T11:15:14.571Z,59.44
2018-12-11T11:17:47.091Z,59.98
2018-12-11T11:20:19.752Z,59.58
2018-12-11T11:22:52.285Z,59.79
2018-12-11T11:25:24.926Z,59.46
2018-12-11T11:27:57.461Z,59.54
2018-12-11T11:30:30.113Z,59.83
2018-12-11T11:33:02.654Z,59.70
2018-12-11T11:35:35.316Z,60.01
2018-12-11T11:38:07.877Z,60.20
2018-12-11T11:40:40.475Z,60.00
2018-12-11T11:43:13.019Z,59.50
2018-12-11T11:45:45.587Z,59.81
2018-12-11T11:48:18.123Z,60.13
2018-12-11T11:50:50.783Z,60.36
2018-12-11T11:53:23.311Z,59.22
2018-12-11T11:55:55.898Z,59.46
2018-12-11T11:58:28.432Z,59.43
2018-12-11T12:01:01.208Z,59.80
2018-12-11T12:03:33.754Z,59.82
2018-12-11T12:06:06.331Z,59.46
2018-12-11T12:08:38.865Z,59.42
2018-12-11T12:11:11.507Z,59.61
2018-12-11T12:13:44.063Z,59.53
2018-12-11T12:16:16.625Z,59.20
2018-12-11T12:18:49.218Z,59.17
2018-12-11T12:21:21.848Z,59.56
2018-12-11T12:23:54.389Z,59.31
2018-12-11T12:26:28.396Z,58.63
2018-12-11T12:29:01.164Z,59.03
2018-12-11T12:31:33.996Z,59.03
2018-12-11T12:34:06.542Z,59.45
2018-12-11T12:36:39.127Z,59.13
2018-12-11T12:39:11.690Z,59.07
2018-12-11T12:41:44.258Z,59.05
2018-12-11T12:44:16.839Z,58.70
2018-12-11T12:46:49.954Z,59.02
2018-12-11T12:49:22.613Z,59.06
2018-12-11T12:51:55.187Z,58.94
2018-12-11T12:54:27.752Z,59.21
2018-12-11T12:57:00.459Z,58.99
2018-12-11T12:59:33.039Z,58.62
2018-12-11T13:02:05.845Z,59.07
2018-12-11T13:04:38.685Z,58.64
2018-12-11T13:07:11.554Z,59.10
2018-12-11T13:09:44.199Z,58.95
2018-12-11T13:12:17.030Z,58.92
2018-12-11T13:14:49.561Z,58.43
2018-12-11T13:17:22.161Z,58.71
2018-12-11T13:19:54.742Z,58.68
2018-12-11T13:22:27.383Z,58.82
2018-12-11T13:24:59.958Z,58.87
2018-12-11T13:27:32.545Z,59.06
2018-12-11T13:30:05.300Z,59.02
2018-12-11T13:32:37.955Z,59.11
2018-12-11T13:35:10.577Z,58.43
2018-12-11T13:37:43.351Z,58.54
2018-12-11T13:40:15.909Z,58.93
2018-12-11T13:42:48.511Z,58.82
2018-12-11T13:45:21.134Z,59.24
2018-12-11T13:47:53.737Z,58.60
2018-12-11T13:53:05.294Z,58.55
2018-12-11T13:55:37.941Z,58.79
2018-12-11T13:58:10.703Z,59.03
2018-12-11T14:00:43.258Z,58.83
2018-12-11T14:03:16.319Z,59.05
2018-12-11T14:05:48.889Z,58.73
2018-12-11T14:08:21.606Z,58.73
2018-12-11T14:10:54.214Z,59.40
2018-12-11T14:13:26.873Z,59.19
2018-12-11T14:15:59.431Z,59.48
2018-12-11T14:18:32.037Z,59.65
2018-12-11T14:21:04.754Z,59.11
2018-12-11T14:23:37.468Z,59.51
2018-12-11T14:26:10.215Z,59.56
2018-12-11T14:28:43.025Z,59.74
2018-12-11T14:31:15.590Z,59.53
2018-12-11T14:33:48.189Z,59.78
2018-12-11T14:36:20.714Z,59.74
2018-12-11T14:38:53.394Z,59.39
2018-12-11T14:41:26.138Z,59.53
2018-12-11T14:43:58.798Z,59.56
2018-12-11T14:46:31.356Z,59.57
2018-12-11T14:49:03.972Z,59.59
2018-12-11T14:51:36.701Z,59.79
2018-12-11T14:54:09.407Z,60.22
2018-12-11T14:56:42.076Z,60.04
2018-12-11T14:59:15.233Z,59.63
2018-12-11T15:01:48.143Z,59.89
2018-12-11T15:04:20.735Z,59.90
2018-12-11T15:06:53.407Z,59.94
2018-12-11T15:09:31.632Z,60.20
2018-12-11T15:12:04.408Z,60.10
2018-12-11T15:14:37.017Z,60.14
2018-12-11T15:17:09.633Z,60.37
2018-12-11T15:19:42.247Z,60.08
2018-12-11T15:22:14.823Z,59.91
2018-12-11T15:24:47.445Z,60.00
2018-12-11T15:27:20.096Z,59.97
2018-12-11T15:29:53.283Z,59.90
2018-12-11T15:32:26.168Z,59.92
2018-12-11T15:34:58.940Z,59.72
2018-12-11T15:37:31.499Z,59.92
2018-12-11T15:40:05.766Z,59.62
2018-12-11T15:42:38.597Z,59.99
2018-12-11T15:45:11.696Z,59.85
2018-12-11T15:47:44.230Z,59.96
2018-12-11T15:50:17.565Z,60.02
2018-12-11T15:52:50.154Z,60.14
2018-12-11T15:55:23.265Z,60.00
2018-12-11T15:57:56.019Z,60.04
2018-12-11T16:00:29.068Z,59.71
2018-12-11T16:03:02.075Z,59.84
2018-12-11T16:05:35.048Z,59.61
2018-12-11T16:08:07.707Z,60.12
2018-12-11T16:10:40.302Z,59.92
2018-12-11T16:13:12.874Z,59.97
2018-12-11T16:15:45.833Z,60.09
2018-12-11T16:18:18.394Z,60.29
2018-12-11T16:20:51.031Z,60.09
2018-12-11T16:23:23.569Z,59.98
2018-12-11T16:25:56.235Z,60.06
2018-12-11T16:28:29.025Z,60.58
2018-12-11T16:31:01.964Z,60.40
2018-12-11T16:33:34.626Z,60.23
2018-12-11T16:36:07.208Z,60.54
2018-12-11T16:38:39.928Z,60.54
2018-12-11T16:41:12.661Z,60.74
2018-12-11T16:43:45.208Z,60.55
2018-12-11T16:46:17.785Z,60.65
2018-12-11T16:48:50.350Z,60.24
2018-12-11T16:51:23.024Z,60.22
2018-12-11T16:53:55.953Z,60.09
2018-12-11T16:56:28.615Z,60.39
2018-12-11T16:59:01.368Z,60.66
2018-12-11T17:01:34.072Z,60.44
2018-12-11T17:04:06.700Z,60.37
2018-12-11T17:06:39.331Z,60.32
2018-12-11T17:09:13.962Z,60.39
2018-12-11T17:11:46.535Z,60.89
2018-12-11T17:14:19.126Z,60.41
2018-12-11T17:16:51.797Z,60.76
2018-12-11T17:19:24.368Z,60.41
2018-12-11T17:21:57.992Z,60.63
2018-12-11T17:24:30.542Z,60.82
2018-12-11T17:27:03.231Z,60.50
2018-12-11T17:29:36.098Z,60.81
2018-12-11T17:32:08.744Z,60.56
2018-12-11T17:34:41.447Z,60.70
2018-12-11T17:37:14.102Z,60.60
2018-12-11T17:39:46.686Z,60.54
2018-12-11T17:42:19.339Z,60.96
2018-12-11T17:44:51.884Z,60.75
2018-12-11T17:47:24.445Z,60.63
2018-12-11T17:49:56.983Z,61.12
2018-12-11T17:52:29.609Z,61.05
2018-12-11T17:55:02.155Z,61.08
2018-12-11T17:57:34.719Z,61.17
2018-12-11T18:00:08.753Z,61.22
2018-12-11T18:02:41.666Z,61.30
2018-12-11T18:05:14.204Z,61.33
2018-12-11T18:07:46.754Z,61.44
2018-12-11T18:10:19.315Z,61.58
2018-12-11T18:12:51.884Z,61.60
2018-12-11T18:15:24.511Z,61.60
2018-12-11T18:17:57.288Z,61.62
2018-12-11T18:20:29.910Z,61.82
2018-12-11T18:23:02.688Z,61.61
2018-12-11T18:25:35.330Z,61.78
2018-12-11T18:28:08.112Z,61.89
2018-12-11T18:30:40.781Z,61.80
2018-12-11T18:33:13.343Z,61.70
2018-12-11T18:35:45.892Z,61.72
2018-12-11T18:38:18.461Z,61.83
2018-12-11T18:40:51.477Z,61.57
2018-12-11T18:43:24.208Z,62.05
2018-12-11T18:45:56.825Z,61.80
2018-12-11T18:48:29.491Z,62.06
2018-12-11T18:51:02.061Z,61.96
2018-12-11T18:53:34.624Z,61.92
2018-12-11T18:56:07.162Z,62.15
2018-12-11T18:58:39.756Z,62.06
2018-12-11T19:01:13.383Z,62.27
2018-12-11T19:03:49.234Z,62.44
2018-12-11T19:06:20.882Z,62.72
2018-12-11T19:08:53.567Z,62.28
2018-12-11T19:11:26.115Z,62.50
2018-12-11T19:13:58.737Z,62.21
2018-12-11T19:16:31.271Z,62.21
2018-12-11T19:19:03.964Z,62.11
2018-12-11T19:21:36.549Z,62.15
2018-12-11T19:24:09.157Z,62.34
2018-12-11T19:26:41.827Z,62.27
2018-12-11T19:29:14.407Z,62.64
2018-12-11T19:31:47.046Z,62.34
2018-12-11T19:34:19.851Z,62.41
2018-12-11T19:36:52.398Z,62.45
2018-12-11T19:39:24.959Z,62.25
2018-12-11T19:41:57.495Z,62.34
2018-12-11T19:44:30.139Z,62.15
2018-12-11T19:47:02.673Z,62.43
2018-12-11T19:49:35.363Z,62.73
2018-12-11T19:52:08.124Z,62.61
2018-12-11T19:54:40.732Z,62.44
2018-12-11T19:57:13.354Z,62.62
2018-12-11T19:59:46.010Z,62.54
2018-12-11T20:02:18.854Z,62.63
2018-12-11T20:04:51.577Z,62.70
2018-12-11T20:07:24.203Z,62.54
2018-12-11T20:10:02.576Z,62.41
2018-12-11T20:12:35.193Z,62.41
2018-12-11T20:15:07.841Z,62.61
2018-12-11T20:17:40.759Z,62.53
2018-12-11T20:20:23.452Z,62.74
2018-12-11T20:22:56.027Z,62.38
2018-12-11T20:25:28.659Z,62.54
2018-12-11T20:28:01.259Z,62.56
2018-12-11T20:30:34.081Z,62.60
2018-12-11T20:33:06.625Z,62.52
2018-12-11T20:35:39.233Z,62.37
2018-12-11T20:38:11.949Z,62.51
2018-12-11T20:40:44.572Z,62.42
2018-12-11T20:43:17.469Z,62.78
2018-12-11T20:45:50.906Z,62.92
2018-12-11T20:48:23.592Z,62.81
2018-12-11T20:50:56.311Z,62.92
2018-12-11T20:53:29.128Z,62.69
2018-12-11T20:56:02.035Z,62.79
2018-12-11T20:58:34.637Z,62.83
2018-12-11T21:01:07.417Z,62.59
2018-12-11T21:03:40.210Z,62.55
2018-12-11T21:06:12.889Z,62.75
2018-12-11T21:08:45.659Z,62.87
2018-12-11T21:11:18.247Z,62.76
2018-12-11T21:13:50.949Z,62.82
2018-12-11T21:16:23.531Z,63.15
2018-12-11T21:18:56.360Z,63.24
2018-12-11T21:21:29.164Z,63.17
2018-12-11T21:24:02.433Z,63.35
2018-12-11T21:26:35.012Z,63.32
2018-12-11T21:29:07.559Z,63.36
2018-12-11T21:31:40.223Z,63.12
2018-12-11T21:34:12.800Z,63.36
2018-12-11T21:36:45.450Z,63.13
2018-12-11T21:39:18.015Z,63.31
2018-12-11T21:41:51.493Z,63.30
2018-12-11T21:44:24.030Z,63.56
2018-12-11T21:46:56.589Z,63.60
2018-12-11T21:49:29.125Z,63.51
2018-12-11T21:52:01.684Z,63.57
2018-12-11T21:54:34.231Z,63.89
2018-12-11T21:57:06.899Z,63.71
2018-12-11T21:59:39.449Z,63.77
2018-12-11T22:02:12.031Z,63.87
2018-12-11T22:04:44.569Z,63.98
2018-12-11T22:07:17.142Z,64.01
2018-12-11T22:09:50.040Z,63.77
2018-12-11T22:12:23.354Z,63.92
2018-12-11T22:14:55.909Z,64.09
2018-12-11T22:17:28.480Z,64.06
2018-12-11T22:20:01.011Z,64.03
2018-12-11T22:22:33.561Z,63.64
2018-12-11T22:25:06.164Z,64.16
2018-12-11T22:27:38.863Z,63.98
2018-12-11T22:30:11.397Z,63.81
2018-12-11T22:32:43.966Z,63.97
2018-12-11T22:35:16.506Z,63.96
2018-12-11T22:37:49.154Z,64.16
2018-12-11T22:40:21.722Z,63.94
2018-12-11T22:42:54.356Z,63.92
2018-12-11T22:45:26.907Z,63.88
2018-12-11T22:47:59.458Z,63.62
2018-12-11T22:50:32.087Z,63.79
2018-12-11T22:53:04.641Z,63.67
2018-12-11T22:55:37.204Z,63.69
2018-12-11T22:58:09.854Z,63.73
2018-12-11T23:00:43.889Z,63.61
2018-12-11T23:03:16.507Z,63.60
2018-12-11T23:05:49.093Z,63.44
2018-12-11T23:08:21.746Z,63.73
2018-12-11T23:10:54.325Z,63.88
2018-12-11T23:13:27.069Z,63.74
2018-12-11T23:15:59.762Z,63.80
2018-12-11T23:18:32.322Z,63.58
2018-12-11T23:21:04.879Z,63.35
2018-12-11T23:23:37.809Z,63.46
2018-12-11T23:26:10.532Z,63.63
2018-12-11T23:28:43.109Z,63.57
2018-12-11T23:31:15.643Z,63.44
2018-12-11T23:33:48.277Z,63.40
2018-12-11T23:36:20.800Z,63.56
2018-12-11T23:38:53.442Z,63.47
2018-12-11T23:41:25.990Z,63.33
2018-12-11T23:43:58.522Z,63.66
2018-12-11T23:46:31.070Z,63.58
2018-12-11T23:49:03.747Z,63.53
2018-12-11T23:51:36.294Z,63.89
2018-12-11T23:54:08.976Z,63.73
2018-12-11T23:56:41.513Z,63.54
2018-12-11T23:59:14.103Z,63.61
